createdAt,value
2023-03-06T00:00:19.457Z,15.13
2023-03-06T00:01:18.552Z,16.63
2023-03-06T00:02:15.126Z,15.25
2023-03-06T00:03:11.834Z,16.00
2023-03-06T00:04:08.656Z,15.80
2023-03-06T00:05:05.496Z,16.98
2023-03-06T00:06:02.447Z,15.80
2023-03-06T00:06:59.122Z,15.10
2023-03-06T00:07:55.798Z,14.05
2023-03-06T00:08:52.454Z,14.27
2023-03-06T00:09:49.038Z,15.73
2023-03-06T00:10:46.048Z,14.10
2023-03-06T00:11:42.621Z,15.68
2023-03-06T00:12:39.287Z,14.98
2023-03-06T00:13:35.876Z,15.65
2023-03-06T00:14:32.419Z,15.50
2023-03-06T00:15:29.448Z,15.65
2023-03-06T00:16:26.095Z,15.52
2023-03-06T00:17:22.826Z,16.30
2023-03-06T00:18:19.401Z,14.85
2023-03-06T00:19:16.016Z,14.85
2023-03-06T00:20:13.419Z,14.35
2023-03-06T00:21:10.113Z,14.93
2023-03-06T00:22:06.709Z,14.90
2023-03-06T00:23:03.619Z,14.57
2023-03-06T00:24:00.227Z,13.65
2023-03-06T00:24:57.012Z,15.05
2023-03-06T00:25:53.688Z,15.40
2023-03-06T00:26:50.965Z,14.30
2023-03-06T00:27:48.254Z,14.75
2023-03-06T00:28:44.960Z,13.75
2023-03-06T00:29:41.578Z,13.27
2023-03-06T00:30:38.235Z,14.02
2023-03-06T00:31:36.005Z,13.65
2023-03-06T00:32:32.665Z,13.43
2023-03-06T00:33:29.504Z,14.32
2023-03-06T00:34:26.119Z,14.00
2023-03-06T00:35:22.890Z,13.98
2023-03-06T00:36:19.556Z,13.57
2023-03-06T00:37:16.333Z,13.30
2023-03-06T00:38:13.517Z,13.52
2023-03-06T00:39:10.138Z,13.48
2023-03-06T00:40:12.897Z,12.57
2023-03-06T00:41:13.265Z,14.20
2023-03-06T00:42:10.017Z,13.65
2023-03-06T00:43:06.619Z,13.57
2023-03-06T00:44:03.333Z,13.80
2023-03-06T00:44:59.893Z,13.88
2023-03-06T00:45:56.512Z,13.95
2023-03-06T00:46:53.195Z,15.25
2023-03-06T00:47:49.859Z,13.27
2023-03-06T00:48:46.578Z,15.27
2023-03-06T00:49:44.870Z,14.60
2023-03-06T00:50:41.449Z,15.82
2023-03-06T00:51:38.107Z,14.27
2023-03-06T00:52:35.044Z,14.05
2023-03-06T00:53:31.738Z,15.57
2023-03-06T00:54:28.295Z,15.85
2023-03-06T00:55:24.925Z,15.65
2023-03-06T00:56:21.598Z,15.07
2023-03-06T00:57:18.208Z,14.20
2023-03-06T00:58:14.837Z,15.43
2023-03-06T00:59:11.739Z,14.60
2023-03-06T01:00:10.575Z,14.73
2023-03-06T01:01:07.352Z,14.15
2023-03-06T01:02:04.740Z,14.43
2023-03-06T01:03:01.347Z,15.02
2023-03-06T01:03:57.948Z,14.23
2023-03-06T01:04:54.724Z,15.25
2023-03-06T01:05:52.022Z,15.50
2023-03-06T01:06:49.521Z,15.52
2023-03-06T01:07:46.884Z,14.30
2023-03-06T01:08:43.470Z,14.65
2023-03-06T01:09:40.041Z,14.45
2023-03-06T01:10:40.678Z,13.93
2023-03-06T01:11:37.407Z,15.40
2023-03-06T01:12:37.142Z,15.27
2023-03-06T01:13:33.757Z,16.38
2023-03-06T01:14:31.506Z,15.30
2023-03-06T01:15:28.168Z,14.75
2023-03-06T01:16:24.857Z,14.27
2023-03-06T01:17:21.550Z,14.18
2023-03-06T01:18:18.440Z,15.27
2023-03-06T01:19:15.483Z,15.57
2023-03-06T01:20:15.653Z,14.27
2023-03-06T01:21:13.422Z,14.90
2023-03-06T01:22:10.012Z,14.70
2023-03-06T01:23:06.610Z,15.80
2023-03-06T01:24:03.228Z,14.68
2023-03-06T01:24:59.806Z,14.98
2023-03-06T01:25:56.661Z,15.13
2023-03-06T01:26:53.324Z,14.10
2023-03-06T01:27:49.889Z,15.00
2023-03-06T01:28:46.470Z,14.65
2023-03-06T01:29:43.058Z,14.70
2023-03-06T01:30:39.726Z,14.55
2023-03-06T01:31:36.349Z,14.55
2023-03-06T01:32:33.371Z,15.00
2023-03-06T01:33:30.280Z,15.23
2023-03-06T01:34:26.952Z,13.85
2023-03-06T01:35:23.618Z,14.25
2023-03-06T01:36:20.276Z,13.70
2023-03-06T01:37:17.231Z,14.60
2023-03-06T01:38:14.017Z,14.38
2023-03-06T01:39:10.761Z,15.02
2023-03-06T01:40:09.267Z,14.45
2023-03-06T01:41:06.563Z,15.18
2023-03-06T01:42:03.765Z,14.25
2023-03-06T01:43:25.487Z,15.23
2023-03-06T01:44:22.160Z,14.10
2023-03-06T01:45:18.700Z,15.15
2023-03-06T01:46:21.173Z,14.88
2023-03-06T01:47:17.830Z,13.70
2023-03-06T01:48:14.579Z,13.85
2023-03-06T01:49:14.170Z,15.20
2023-03-06T01:50:12.020Z,15.15
2023-03-06T01:51:09.065Z,15.27
2023-03-06T01:52:27.336Z,15.90
2023-03-06T01:53:24.499Z,18.00
2023-03-06T01:54:31.202Z,22.75
2023-03-06T01:55:33.858Z,17.67
2023-03-06T01:56:30.755Z,16.17
2023-03-06T01:57:41.082Z,17.25
2023-03-06T01:58:38.419Z,16.10
2023-03-06T01:59:36.780Z,18.00
2023-03-06T02:00:33.660Z,15.48
2023-03-06T02:01:32.309Z,15.70
2023-03-06T02:02:29.584Z,14.68
2023-03-06T02:03:28.480Z,14.88
2023-03-06T02:04:25.240Z,14.35
2023-03-06T02:05:22.438Z,14.65
2023-03-06T02:06:21.813Z,14.80
2023-03-06T02:07:20.962Z,14.05
2023-03-06T02:08:19.682Z,14.35
2023-03-06T02:09:16.814Z,14.13
2023-03-06T02:10:15.001Z,15.07
2023-03-06T02:11:17.357Z,13.82
2023-03-06T02:13:13.053Z,13.85
2023-03-06T02:14:13.128Z,13.75
2023-03-06T02:15:11.949Z,13.98
2023-03-06T02:16:10.220Z,13.35
2023-03-06T02:17:09.961Z,12.98
2023-03-06T02:18:06.772Z,13.32
2023-03-06T02:19:07.186Z,14.13
2023-03-06T02:20:39.561Z,13.73
2023-03-06T02:21:37.726Z,13.52
2023-03-06T02:23:56.185Z,13.45
2023-03-06T02:25:07.938Z,15.13
2023-03-06T02:26:06.566Z,13.07
2023-03-06T02:27:04.548Z,13.55
2023-03-06T02:28:02.346Z,12.63
2023-03-06T02:28:59.440Z,13.65
2023-03-06T02:29:56.116Z,13.55
2023-03-06T02:30:54.493Z,13.25
2023-03-06T02:31:51.185Z,13.38
2023-03-06T02:32:47.856Z,13.90
2023-03-06T02:33:44.453Z,13.05
2023-03-06T02:34:40.989Z,14.55
2023-03-06T02:35:39.262Z,14.20
2023-03-06T02:36:40.275Z,13.82
2023-03-06T02:37:36.880Z,13.95
2023-03-06T02:38:40.734Z,13.60
2023-03-06T02:39:46.786Z,13.40
2023-03-06T02:40:46.916Z,12.30
2023-03-06T02:41:43.580Z,13.02
2023-03-06T02:42:49.816Z,13.18
2023-03-06T02:43:48.096Z,13.57
2023-03-06T02:44:44.791Z,14.93
2023-03-06T02:45:45.549Z,13.63
2023-03-06T02:46:42.169Z,13.82
2023-03-06T02:47:38.783Z,13.82
2023-03-06T02:48:35.374Z,12.40
2023-03-06T02:49:31.986Z,13.38
2023-03-06T02:50:28.784Z,13.88
2023-03-06T02:51:26.178Z,13.63
2023-03-06T02:52:22.946Z,12.98
2023-03-06T02:53:21.014Z,12.82
2023-03-06T02:54:20.396Z,13.48
2023-03-06T02:55:17.101Z,12.90
2023-03-06T02:56:15.176Z,13.43
2023-03-06T02:57:12.110Z,13.55
2023-03-06T02:58:09.689Z,13.57
2023-03-06T02:59:06.408Z,13.20
2023-03-06T03:00:03.859Z,12.90
2023-03-06T03:01:00.519Z,13.57
2023-03-06T03:01:57.142Z,13.70
2023-03-06T03:02:54.102Z,13.95
2023-03-06T03:03:50.787Z,13.35
2023-03-06T03:04:47.422Z,13.02
2023-03-06T03:05:44.108Z,13.55
2023-03-06T03:06:40.662Z,12.50
2023-03-06T03:07:37.396Z,13.23
2023-03-06T03:08:34.566Z,13.13
2023-03-06T03:09:36.772Z,12.82
2023-03-06T03:10:33.416Z,13.25
2023-03-06T03:11:29.980Z,13.55
2023-03-06T03:12:28.651Z,13.73
2023-03-06T03:13:25.453Z,12.65
2023-03-06T03:14:24.576Z,13.48
2023-03-06T03:15:21.361Z,13.95
2023-03-06T03:16:18.021Z,13.95
2023-03-06T03:17:14.831Z,13.95
2023-03-06T03:18:12.138Z,13.18
2023-03-06T03:19:08.775Z,13.95
2023-03-06T03:20:07.735Z,13.52
2023-03-06T03:21:08.498Z,19.85
2023-03-06T03:22:05.494Z,15.88
2023-03-06T03:23:02.185Z,13.48
2023-03-06T03:23:58.832Z,13.07
2023-03-06T03:24:55.510Z,13.77
2023-03-06T03:25:52.746Z,14.02
2023-03-06T03:26:49.340Z,14.65
2023-03-06T03:27:46.029Z,14.48
2023-03-06T03:28:42.711Z,13.82
2023-03-06T03:29:39.702Z,14.13
2023-03-06T03:30:36.371Z,14.02
2023-03-06T03:31:33.268Z,12.85
2023-03-06T03:32:29.931Z,13.85
2023-03-06T03:33:26.561Z,13.95
2023-03-06T03:34:23.165Z,13.43
2023-03-06T03:35:19.862Z,13.75
2023-03-06T03:36:16.467Z,15.25
2023-03-06T03:37:13.061Z,14.43
2023-03-06T03:38:09.724Z,14.27
2023-03-06T03:39:06.629Z,14.07
2023-03-06T03:40:05.185Z,13.80
2023-03-06T03:41:02.682Z,14.13
2023-03-06T03:41:59.473Z,13.55
2023-03-06T03:42:56.060Z,14.23
2023-03-06T03:43:52.775Z,14.07
2023-03-06T03:44:49.330Z,14.65
2023-03-06T03:45:46.048Z,14.80
2023-03-06T03:46:42.644Z,14.50
2023-03-06T03:47:39.359Z,14.02
2023-03-06T03:48:35.969Z,14.40
2023-03-06T03:49:32.546Z,14.43
2023-03-06T03:50:29.139Z,15.27
2023-03-06T03:51:25.685Z,15.18
2023-03-06T03:52:22.377Z,13.90
2023-03-06T03:53:18.966Z,14.95
2023-03-06T03:54:15.559Z,14.18
2023-03-06T03:55:12.189Z,14.27
2023-03-06T03:56:08.824Z,14.10
2023-03-06T03:57:05.547Z,13.90
2023-03-06T03:58:02.280Z,14.48
2023-03-06T03:58:58.947Z,14.00
2023-03-06T03:59:55.746Z,13.98
2023-03-06T04:00:52.471Z,14.38
2023-03-06T04:01:49.646Z,14.27
2023-03-06T04:02:46.685Z,15.20
2023-03-06T04:03:43.843Z,14.18
2023-03-06T04:04:40.883Z,13.85
2023-03-06T04:05:37.646Z,14.10
2023-03-06T04:06:34.320Z,14.05
2023-03-06T04:07:30.975Z,14.15
2023-03-06T04:08:27.851Z,14.75
2023-03-06T04:09:24.579Z,14.00
2023-03-06T04:10:21.259Z,15.05
2023-03-06T04:11:17.852Z,13.82
2023-03-06T04:12:14.460Z,14.52
2023-03-06T04:13:11.134Z,14.23
2023-03-06T04:14:09.742Z,14.18
2023-03-06T04:15:08.190Z,14.88
2023-03-06T04:16:04.962Z,14.82
2023-03-06T04:17:01.542Z,14.75
2023-03-06T04:17:58.393Z,13.75
2023-03-06T04:18:54.982Z,15.98
2023-03-06T04:19:51.770Z,15.05
2023-03-06T04:20:49.636Z,13.90
2023-03-06T04:21:46.321Z,14.10
2023-03-06T04:22:42.902Z,14.57
2023-03-06T04:23:39.541Z,14.85
2023-03-06T04:24:36.207Z,14.98
2023-03-06T04:25:32.801Z,13.27
2023-03-06T04:26:29.445Z,14.65
2023-03-06T04:27:26.093Z,13.73
2023-03-06T04:28:22.798Z,13.98
2023-03-06T04:29:19.532Z,14.80
2023-03-06T04:30:16.323Z,14.18
2023-03-06T04:31:13.796Z,13.38
2023-03-06T04:32:10.739Z,13.95
2023-03-06T04:33:07.577Z,12.77
2023-03-06T04:34:04.210Z,14.10
2023-03-06T04:35:00.940Z,13.55
2023-03-06T04:35:57.646Z,13.55
2023-03-06T04:36:54.328Z,13.50
2023-03-06T04:37:51.013Z,13.15
2023-03-06T04:38:47.732Z,12.88
2023-03-06T04:39:44.422Z,13.32
2023-03-06T04:40:44.479Z,12.70
2023-03-06T04:41:42.480Z,13.48
2023-03-06T04:42:39.331Z,12.82
2023-03-06T04:43:35.973Z,13.70
2023-03-06T04:44:32.664Z,12.55
2023-03-06T04:45:30.915Z,13.35
2023-03-06T04:46:27.548Z,13.20
2023-03-06T04:47:24.275Z,13.38
2023-03-06T04:48:20.905Z,13.57
2023-03-06T04:49:17.592Z,12.98
2023-03-06T04:50:14.367Z,12.80
2023-03-06T04:51:13.358Z,12.38
2023-03-06T04:52:09.930Z,14.00
2023-03-06T04:53:07.992Z,13.55
2023-03-06T04:54:05.367Z,11.82
2023-03-06T04:55:04.221Z,12.18
2023-03-06T04:56:00.884Z,12.13
2023-03-06T04:56:57.509Z,13.02
2023-03-06T04:57:54.240Z,12.27
2023-03-06T04:58:50.884Z,12.45
2023-03-06T04:59:47.419Z,13.10
2023-03-06T05:00:44.127Z,12.82
2023-03-06T05:01:40.821Z,13.23
2023-03-06T05:02:38.081Z,12.38
2023-03-06T05:03:34.678Z,12.35
2023-03-06T05:04:31.226Z,12.02
2023-03-06T05:05:28.965Z,13.57
2023-03-06T05:06:26.490Z,12.82
2023-03-06T05:07:23.205Z,12.73
2023-03-06T05:08:20.066Z,12.48
2023-03-06T05:09:16.950Z,12.15
2023-03-06T05:10:16.051Z,12.45
2023-03-06T05:11:12.690Z,12.50
2023-03-06T05:12:09.409Z,13.35
2023-03-06T05:13:06.155Z,12.82
2023-03-06T05:14:02.831Z,12.23
2023-03-06T05:14:59.523Z,13.13
2023-03-06T05:16:01.930Z,12.75
2023-03-06T05:17:56.569Z,12.18
2023-03-06T05:18:53.414Z,12.57
2023-03-06T05:19:49.998Z,10.68
2023-03-06T05:20:46.696Z,11.68
2023-03-06T05:21:43.340Z,12.20
2023-03-06T05:22:40.713Z,12.32
2023-03-06T05:23:38.662Z,12.38
2023-03-06T05:24:35.439Z,13.05
2023-03-06T05:25:32.233Z,12.05
2023-03-06T05:26:28.913Z,13.07
2023-03-06T05:27:25.692Z,11.48
2023-03-06T05:28:22.651Z,12.38
2023-03-06T05:29:19.368Z,12.15
2023-03-06T05:30:16.273Z,11.80
2023-03-06T05:31:12.925Z,12.07
2023-03-06T05:32:09.734Z,12.80
2023-03-06T05:33:06.675Z,12.13
2023-03-06T05:34:03.360Z,13.75
2023-03-06T05:35:00.058Z,12.57
2023-03-06T05:35:56.714Z,11.85
2023-03-06T05:36:53.263Z,12.57
2023-03-06T05:37:50.170Z,12.43
2023-03-06T05:38:46.955Z,11.93
2023-03-06T05:39:43.499Z,11.63
2023-03-06T05:40:44.292Z,12.55
2023-03-06T05:41:40.862Z,12.00
2023-03-06T05:42:37.616Z,12.75
2023-03-06T05:43:34.218Z,12.32
2023-03-06T05:44:33.078Z,12.48
2023-03-06T05:45:29.653Z,11.43
2023-03-06T05:46:26.524Z,11.93
2023-03-06T05:47:23.280Z,11.93
2023-03-06T05:48:19.879Z,11.02
2023-03-06T05:49:17.084Z,11.32
2023-03-06T05:50:14.841Z,11.80
2023-03-06T05:51:11.981Z,10.40
2023-03-06T05:52:09.026Z,10.25
2023-03-06T05:53:05.670Z,11.38
2023-03-06T05:54:02.417Z,10.50
2023-03-06T05:54:59.100Z,11.48
2023-03-06T05:56:00.055Z,10.88
2023-03-06T05:56:57.479Z,10.55
2023-03-06T05:57:54.151Z,11.45
2023-03-06T05:58:51.703Z,10.63
2023-03-06T05:59:50.025Z,17.55
2023-03-06T06:00:46.615Z,11.27
2023-03-06T06:01:43.312Z,10.40
2023-03-06T06:02:40.083Z,10.55
2023-03-06T06:03:36.815Z,10.65
2023-03-06T06:04:33.486Z,10.25
2023-03-06T06:05:30.241Z,25.63
2023-03-06T06:06:26.837Z,22.08
2023-03-06T06:07:23.442Z,19.23
2023-03-06T06:08:20.998Z,12.85
2023-03-06T06:09:17.537Z,12.13
2023-03-06T06:10:14.371Z,10.80
2023-03-06T06:11:12.834Z,14.05
2023-03-06T06:12:09.589Z,13.32
2023-03-06T06:13:06.434Z,11.60
2023-03-06T06:14:03.051Z,12.18
2023-03-06T06:14:59.657Z,10.10
2023-03-06T06:15:56.330Z,21.48
2023-03-06T06:16:53.646Z,11.50
2023-03-06T06:17:50.226Z,16.00
2023-03-06T06:18:46.837Z,13.35
2023-03-06T06:19:43.913Z,12.20
2023-03-06T06:20:40.541Z,13.77
2023-03-06T06:21:37.174Z,9.77
2023-03-06T06:22:36.829Z,12.48
2023-03-06T06:23:33.680Z,10.05
2023-03-06T06:24:31.933Z,10.05
2023-03-06T06:25:28.582Z,12.27
2023-03-06T06:26:25.200Z,14.65
2023-03-06T06:27:21.792Z,9.55
2023-03-06T06:28:18.427Z,9.43
2023-03-06T06:29:15.176Z,11.07
2023-03-06T06:30:13.045Z,9.48
2023-03-06T06:31:13.138Z,9.90
2023-03-06T06:32:09.871Z,9.55
2023-03-06T06:33:06.972Z,8.95
2023-03-06T06:34:07.613Z,9.70
2023-03-06T06:35:05.029Z,9.50
2023-03-06T06:36:01.807Z,10.07
2023-03-06T06:36:58.509Z,9.60
2023-03-06T06:37:55.127Z,14.15
2023-03-06T06:38:51.842Z,10.00
2023-03-06T06:39:48.632Z,9.65
2023-03-06T06:40:53.943Z,10.15
2023-03-06T06:42:26.184Z,9.60
2023-03-06T06:43:18.762Z,8.70
2023-03-06T06:44:16.219Z,10.20
2023-03-06T06:45:13.224Z,9.45
2023-03-06T06:46:38.784Z,9.80
2023-03-06T06:47:26.614Z,9.80
2023-03-06T06:48:23.291Z,10.98
2023-03-06T06:49:20.019Z,9.30
2023-03-06T06:50:16.852Z,10.20
2023-03-06T06:51:13.484Z,9.95
2023-03-06T06:52:10.656Z,9.80
2023-03-06T06:53:07.309Z,9.95
2023-03-06T06:54:04.000Z,10.45
2023-03-06T06:55:00.696Z,10.88
2023-03-06T06:56:00.476Z,9.85
2023-03-06T06:56:57.216Z,9.80
2023-03-06T06:57:53.948Z,11.48
2023-03-06T06:59:01.334Z,12.23
2023-03-06T07:00:07.870Z,13.38
2023-03-06T07:01:09.882Z,12.85
2023-03-06T07:02:08.259Z,11.43
2023-03-06T07:03:04.900Z,12.25
2023-03-06T07:04:01.512Z,10.85
2023-03-06T07:05:05.851Z,10.55
2023-03-06T07:06:02.951Z,12.07
2023-03-06T07:06:59.999Z,18.02
2023-03-06T07:07:56.697Z,16.63
2023-03-06T07:08:53.351Z,12.65
2023-03-06T07:09:50.264Z,12.18
2023-03-06T07:10:46.872Z,14.30
2023-03-06T07:11:43.510Z,12.43
2023-03-06T07:12:40.170Z,11.55
2023-03-06T07:13:36.789Z,12.90
2023-03-06T07:14:33.466Z,12.38
2023-03-06T07:15:30.882Z,11.90
2023-03-06T07:16:27.696Z,10.65
2023-03-06T07:17:24.332Z,11.13
2023-03-06T07:18:20.911Z,11.48
2023-03-06T07:19:17.545Z,11.45
2023-03-06T07:20:14.241Z,10.63
2023-03-06T07:21:11.699Z,10.82
2023-03-06T07:22:08.527Z,11.40
2023-03-06T07:23:08.518Z,11.13
2023-03-06T07:24:05.566Z,15.15
2023-03-06T07:25:03.456Z,10.98
2023-03-06T07:26:00.211Z,10.55
2023-03-06T07:26:56.786Z,10.77
2023-03-06T07:27:54.753Z,10.85
2023-03-06T07:28:53.695Z,10.98
2023-03-06T07:29:50.674Z,10.30
2023-03-06T07:30:47.392Z,10.85
2023-03-06T07:31:44.533Z,11.23
2023-03-06T07:32:41.175Z,11.98
2023-03-06T07:33:38.939Z,14.85
2023-03-06T07:34:35.630Z,10.98
2023-03-06T07:35:32.286Z,11.32
2023-03-06T07:36:28.902Z,11.20
2023-03-06T07:37:25.601Z,10.45
2023-03-06T07:38:22.267Z,12.23
2023-03-06T07:39:18.906Z,15.10
2023-03-06T07:40:15.570Z,11.35
2023-03-06T07:41:13.752Z,12.35
2023-03-06T07:42:13.429Z,13.82
2023-03-06T07:43:19.171Z,15.88
2023-03-06T07:44:16.290Z,14.15
2023-03-06T07:45:13.314Z,13.38
2023-03-06T07:46:11.186Z,10.90
2023-03-06T07:47:07.943Z,12.32
2023-03-06T07:48:05.666Z,12.68
2023-03-06T07:49:03.204Z,10.88
2023-03-06T07:50:03.112Z,10.80
2023-03-06T07:51:02.307Z,10.68
2023-03-06T07:51:59.146Z,12.43
2023-03-06T07:52:55.765Z,11.13
2023-03-06T07:53:52.426Z,11.50
2023-03-06T07:54:49.421Z,12.00
2023-03-06T07:55:46.118Z,11.73
2023-03-06T07:56:42.686Z,13.30
2023-03-06T07:57:39.824Z,11.13
2023-03-06T07:58:38.206Z,10.70
2023-03-06T07:59:34.900Z,11.07
2023-03-06T08:00:31.555Z,15.48
2023-03-06T08:01:28.382Z,11.15
2023-03-06T08:02:25.054Z,12.70
2023-03-06T08:03:21.706Z,12.52
2023-03-06T08:04:18.365Z,11.10
2023-03-06T08:05:16.755Z,15.23
2023-03-06T08:06:19.433Z,14.27
2023-03-06T08:07:15.995Z,14.90
2023-03-06T08:08:12.667Z,12.32
2023-03-06T08:09:09.207Z,11.55
2023-03-06T08:10:06.135Z,12.45
2023-03-06T08:11:02.823Z,13.55
2023-03-06T08:11:59.412Z,11.60
2023-03-06T08:12:55.958Z,11.40
2023-03-06T08:13:53.094Z,12.07
2023-03-06T08:14:49.731Z,11.98
2023-03-06T08:15:49.530Z,11.40
2023-03-06T08:16:46.127Z,11.73
2023-03-06T08:17:42.841Z,15.30
2023-03-06T08:18:40.094Z,14.20
2023-03-06T08:19:36.742Z,12.43
2023-03-06T08:20:33.280Z,12.15
2023-03-06T08:21:30.011Z,12.30
2023-03-06T08:22:26.577Z,11.68
2023-03-06T08:23:23.366Z,12.25
2023-03-06T08:24:20.211Z,11.57
2023-03-06T08:25:16.812Z,11.45
2023-03-06T08:26:19.197Z,12.40
2023-03-06T08:27:15.808Z,11.77
2023-03-06T08:28:12.357Z,13.65
2023-03-06T08:29:10.814Z,13.30
2023-03-06T08:30:08.473Z,13.63
2023-03-06T08:31:25.226Z,12.55
2023-03-06T08:32:21.886Z,13.25
2023-03-06T08:33:18.479Z,12.80
2023-03-06T08:34:19.365Z,12.20
2023-03-06T08:35:16.067Z,12.57
2023-03-06T08:36:12.760Z,13.45
2023-03-06T08:37:09.504Z,12.93
2023-03-06T08:38:06.413Z,15.02
2023-03-06T08:39:03.717Z,12.48
2023-03-06T08:40:02.631Z,12.80
2023-03-06T08:40:59.263Z,13.20
2023-03-06T08:41:55.904Z,11.88
2023-03-06T08:42:52.462Z,12.00
2023-03-06T08:43:49.570Z,12.95
2023-03-06T08:44:46.248Z,11.70
2023-03-06T08:45:42.878Z,12.88
2023-03-06T08:46:40.084Z,12.50
2023-03-06T08:47:36.713Z,13.10
2023-03-06T08:48:33.396Z,13.65
2023-03-06T08:49:30.268Z,12.77
2023-03-06T08:50:26.973Z,12.35
2023-03-06T08:51:24.375Z,12.27
2023-03-06T08:52:21.120Z,11.52
2023-03-06T08:53:17.870Z,11.38
2023-03-06T08:54:14.806Z,13.13
2023-03-06T08:55:12.921Z,13.95
2023-03-06T08:56:29.378Z,11.55
2023-03-06T08:57:26.004Z,12.25
2023-03-06T08:58:22.675Z,11.50
2023-03-06T08:59:19.363Z,12.07
2023-03-06T09:00:16.675Z,11.80
2023-03-06T09:01:18.662Z,12.35
2023-03-06T09:02:15.379Z,12.48
2023-03-06T09:03:12.034Z,12.02
2023-03-06T09:04:11.554Z,10.23
2023-03-06T09:05:09.007Z,11.00
2023-03-06T09:06:05.963Z,12.02
2023-03-06T09:07:02.557Z,10.65
2023-03-06T09:07:59.219Z,11.70
2023-03-06T09:08:55.998Z,11.20
2023-03-06T09:09:56.512Z,11.60
2023-03-06T09:10:53.150Z,11.00
2023-03-06T09:11:51.257Z,11.20
2023-03-06T09:12:51.230Z,11.20
2023-03-06T09:13:48.777Z,10.23
2023-03-06T09:14:45.359Z,11.65
2023-03-06T09:15:41.964Z,11.35
2023-03-06T09:16:38.742Z,12.38
2023-03-06T09:17:35.390Z,11.57
2023-03-06T09:18:32.024Z,11.57
2023-03-06T09:19:28.627Z,11.43
2023-03-06T09:20:28.286Z,12.35
2023-03-06T09:21:26.246Z,11.68
2023-03-06T09:22:22.831Z,10.70
2023-03-06T09:23:19.393Z,13.05
2023-03-06T09:24:16.057Z,12.77
2023-03-06T09:25:13.998Z,13.45
2023-03-06T09:26:12.347Z,11.43
2023-03-06T09:27:08.946Z,11.82
2023-03-06T09:28:11.773Z,11.60
2023-03-06T09:29:08.836Z,10.57
2023-03-06T09:30:06.548Z,10.32
2023-03-06T09:31:11.070Z,10.77
2023-03-06T09:32:07.963Z,10.80
2023-03-06T09:33:04.689Z,10.55
2023-03-06T09:34:01.551Z,11.00
2023-03-06T09:34:58.189Z,10.93
2023-03-06T09:35:56.646Z,11.88
2023-03-06T09:36:57.197Z,11.48
2023-03-06T09:37:54.358Z,10.35
2023-03-06T09:39:47.643Z,10.77
2023-03-06T09:41:02.566Z,10.82
2023-03-06T09:41:59.497Z,10.52
2023-03-06T09:42:56.334Z,11.05
2023-03-06T09:43:57.995Z,11.25
2023-03-06T09:45:01.101Z,9.93
2023-03-06T09:45:59.023Z,10.40
2023-03-06T09:47:07.046Z,10.20
2023-03-06T09:48:15.672Z,11.18
2023-03-06T09:49:15.367Z,10.88
2023-03-06T09:50:11.977Z,11.23
2023-03-06T09:51:16.384Z,10.93
2023-03-06T09:52:34.260Z,11.05
2023-03-06T09:53:55.758Z,11.32
2023-03-06T09:54:55.556Z,10.95
2023-03-06T09:56:02.523Z,12.55
2023-03-06T09:56:59.291Z,12.70
2023-03-06T09:58:04.979Z,11.20
2023-03-06T09:59:13.518Z,11.32
2023-03-06T10:00:23.731Z,11.02
2023-03-06T10:01:25.868Z,11.63
2023-03-06T10:02:31.416Z,10.27
2023-03-06T10:03:33.315Z,10.70
2023-03-06T10:04:38.280Z,11.20
2023-03-06T10:06:02.606Z,12.20
2023-03-06T10:07:20.524Z,11.65
2023-03-06T10:08:47.200Z,11.77
2023-03-06T10:09:50.837Z,10.98
2023-03-06T10:11:07.188Z,10.43
2023-03-06T10:12:22.021Z,10.05
2023-03-06T10:13:28.267Z,9.85
2023-03-06T10:14:49.025Z,9.60
2023-03-06T10:15:48.154Z,9.30
2023-03-06T10:16:44.926Z,10.30
2023-03-06T10:17:42.855Z,10.20
2023-03-06T10:18:40.062Z,9.95
2023-03-06T10:19:40.140Z,10.95
2023-03-06T10:21:07.418Z,10.15
2023-03-06T10:22:52.607Z,9.77
2023-03-06T10:24:37.854Z,10.13
2023-03-06T10:26:01.137Z,10.18
2023-03-06T10:27:34.713Z,10.70
2023-03-06T10:28:47.721Z,9.90
2023-03-06T10:30:02.194Z,10.82
2023-03-06T10:31:09.432Z,10.90
2023-03-06T10:32:20.386Z,10.30
2023-03-06T10:33:20.069Z,10.27
2023-03-06T10:34:28.512Z,10.60
2023-03-06T10:35:30.824Z,11.02
2023-03-06T10:37:31.021Z,10.05
2023-03-06T10:38:38.437Z,10.43
2023-03-06T10:39:35.317Z,10.65
2023-03-06T10:40:54.354Z,10.50
2023-03-06T10:41:50.906Z,11.23
2023-03-06T10:42:47.506Z,11.75
2023-03-06T10:44:03.000Z,11.35
2023-03-06T10:45:25.819Z,12.82
2023-03-06T10:46:31.342Z,10.93
2023-03-06T10:47:30.789Z,10.38
2023-03-06T10:48:30.177Z,10.45
2023-03-06T10:49:37.515Z,11.88
2023-03-06T10:50:34.516Z,12.68
2023-03-06T10:51:32.052Z,11.23
2023-03-06T10:52:34.416Z,10.60
2023-03-06T10:53:30.950Z,9.82
2023-03-06T10:54:30.150Z,10.68
2023-03-06T10:55:30.327Z,10.57
2023-03-06T10:56:39.524Z,12.50
2023-03-06T10:57:36.143Z,11.52
2023-03-06T10:58:33.230Z,10.27
2023-03-06T10:59:29.967Z,10.45
2023-03-06T11:00:36.096Z,10.68
2023-03-06T11:01:32.928Z,10.18
2023-03-06T11:02:39.500Z,10.57
2023-03-06T11:03:37.087Z,10.27
2023-03-06T11:04:35.265Z,10.38
2023-03-06T11:05:31.947Z,9.57
2023-03-06T11:06:35.201Z,10.40
2023-03-06T11:07:34.592Z,11.13
2023-03-06T11:08:31.661Z,10.45
2023-03-06T11:09:28.386Z,10.82
2023-03-06T11:10:25.735Z,10.10
2023-03-06T11:11:36.728Z,10.10
2023-03-06T11:12:38.305Z,9.88
2023-03-06T11:13:38.586Z,10.68
2023-03-06T11:14:35.182Z,9.93
2023-03-06T11:15:32.199Z,10.20
2023-03-06T11:16:30.769Z,9.48
2023-03-06T11:17:29.801Z,9.30
2023-03-06T11:18:34.896Z,9.65
2023-03-06T11:19:32.835Z,8.95
2023-03-06T11:20:41.266Z,9.32
2023-03-06T11:22:00.050Z,9.20
2023-03-06T11:23:32.301Z,9.48
2023-03-06T11:24:40.562Z,7.97
2023-03-06T11:25:44.779Z,9.90
2023-03-06T11:26:50.970Z,9.38
2023-03-06T11:27:56.798Z,9.25
2023-03-06T11:29:17.369Z,10.25
2023-03-06T11:30:32.427Z,10.70
2023-03-06T11:31:33.743Z,9.27
2023-03-06T11:32:44.115Z,9.18
2023-03-06T11:34:04.446Z,9.73
2023-03-06T11:35:13.930Z,8.15
2023-03-06T11:36:18.882Z,8.77
2023-03-06T11:37:43.310Z,8.93
2023-03-06T11:38:49.455Z,8.52
2023-03-06T11:39:55.194Z,8.65
2023-03-06T11:41:02.662Z,8.68
2023-03-06T11:42:20.278Z,8.68
2023-03-06T11:44:05.029Z,8.82
2023-03-06T11:45:24.145Z,8.73
2023-03-06T11:46:26.383Z,8.60
2023-03-06T11:47:27.730Z,8.88
2023-03-06T11:48:43.906Z,8.68
2023-03-06T11:50:05.502Z,8.57
2023-03-06T11:51:15.020Z,9.00
2023-03-06T11:52:44.428Z,9.73
2023-03-06T11:53:41.749Z,8.13
2023-03-06T11:54:38.476Z,8.55
2023-03-06T11:55:56.344Z,8.48
2023-03-06T11:57:04.525Z,7.78
2023-03-06T11:58:19.930Z,7.90
2023-03-06T11:59:34.467Z,7.50
2023-03-06T12:00:57.050Z,7.60
2023-03-06T12:02:15.307Z,7.15
2023-03-06T12:03:47.588Z,7.20
2023-03-06T12:05:02.240Z,7.38
2023-03-06T12:06:09.845Z,7.78
2023-03-06T12:07:29.070Z,7.18
2023-03-06T12:08:31.481Z,7.20
2023-03-06T12:09:49.971Z,7.07
2023-03-06T12:10:54.439Z,7.30
2023-03-06T12:12:02.464Z,7.40
2023-03-06T12:13:27.364Z,8.00
2023-03-06T12:15:00.378Z,7.18
2023-03-06T12:16:15.326Z,8.00
2023-03-06T12:17:22.764Z,7.07
2023-03-06T12:18:50.185Z,7.70
2023-03-06T12:20:02.205Z,7.43
2023-03-06T12:21:15.465Z,7.55
2023-03-06T12:22:20.389Z,7.22
2023-03-06T12:23:16.912Z,7.22
2023-03-06T12:24:28.796Z,7.18
2023-03-06T12:25:34.228Z,7.68
2023-03-06T12:26:42.655Z,7.55
2023-03-06T12:27:58.906Z,7.97
2023-03-06T12:28:58.335Z,8.18
2023-03-06T12:30:04.258Z,7.45
2023-03-06T12:31:11.233Z,7.53
2023-03-06T12:32:29.027Z,7.78
2023-03-06T12:33:31.730Z,6.50
2023-03-06T12:35:52.251Z,7.38
2023-03-06T12:36:48.898Z,7.80
2023-03-06T12:37:51.560Z,6.97
2023-03-06T12:39:00.589Z,7.95
2023-03-06T12:40:13.597Z,6.90
2023-03-06T12:42:35.693Z,6.72
2023-03-06T12:43:50.840Z,7.18
2023-03-06T12:44:53.227Z,7.05
2023-03-06T12:47:23.777Z,7.50
2023-03-06T12:48:29.676Z,8.15
2023-03-06T12:49:38.772Z,8.38
2023-03-06T12:50:38.809Z,8.57
2023-03-06T12:51:36.253Z,8.48
2023-03-06T12:52:34.718Z,8.55
2023-03-06T12:53:32.708Z,8.27
2023-03-06T12:54:33.710Z,8.68
2023-03-06T12:55:50.364Z,8.20
2023-03-06T12:56:48.615Z,8.50
2023-03-06T12:57:48.127Z,7.32
2023-03-06T12:58:53.513Z,8.40
2023-03-06T12:59:50.684Z,8.50
2023-03-06T13:01:04.943Z,8.20
2023-03-06T13:02:18.075Z,7.82
2023-03-06T13:04:41.339Z,7.25
2023-03-06T13:05:49.848Z,6.88
2023-03-06T13:07:11.370Z,7.32
2023-03-06T13:08:34.861Z,6.78